createdAt,value
2019-02-03T00:01:31.494Z,22.15
2019-02-03T00:03:58.150Z,22.13
2019-02-03T00:06:24.851Z,22.14
2019-02-03T00:08:51.511Z,22.10
2019-02-03T00:11:18.204Z,22.07
2019-02-03T00:13:44.981Z,22.14
2019-02-03T00:16:11.683Z,22.17
2019-02-03T00:18:38.459Z,22.15
2019-02-03T00:21:05.124Z,22.11
2019-02-03T00:23:31.795Z,22.15
2019-02-03T00:25:58.446Z,22.15
2019-02-03T00:28:25.186Z,22.13
2019-02-03T00:30:51.858Z,22.08
2019-02-03T00:33:18.511Z,22.13
2019-02-03T00:35:45.179Z,22.11
2019-02-03T00:38:21.331Z,22.13
2019-02-03T00:40:38.515Z,22.06
2019-02-03T00:43:05.169Z,22.10
2019-02-03T00:45:31.844Z,22.11
2019-02-03T00:47:58.508Z,22.11
2019-02-03T00:50:25.161Z,22.10
2019-02-03T00:52:51.819Z,22.10
2019-02-03T00:55:18.486Z,22.10
2019-02-03T00:57:45.144Z,22.13
2019-02-03T01:00:11.809Z,22.13
2019-02-03T01:02:38.464Z,22.10
2019-02-03T01:05:05.163Z,22.16
2019-02-03T01:07:31.819Z,22.12
2019-02-03T01:09:58.469Z,22.13
2019-02-03T01:12:25.129Z,22.06
2019-02-03T01:14:51.793Z,22.07
2019-02-03T01:17:18.498Z,22.07
2019-02-03T01:19:45.156Z,22.10
2019-02-03T01:22:11.805Z,22.12
2019-02-03T01:24:38.473Z,22.07
2019-02-03T01:27:05.129Z,22.08
2019-02-03T01:29:31.790Z,22.07
2019-02-03T01:31:58.495Z,22.09
2019-02-03T01:34:25.166Z,22.09
2019-02-03T01:36:51.832Z,22.06
2019-02-03T01:39:18.531Z,22.08
2019-02-03T01:41:45.186Z,22.04
2019-02-03T01:44:12.024Z,22.06
2019-02-03T01:46:38.740Z,22.05
2019-02-03T01:49:05.403Z,22.02
2019-02-03T01:51:32.071Z,22.08
2019-02-03T01:53:58.764Z,22.08
2019-02-03T01:56:25.434Z,22.10
2019-02-03T01:58:52.140Z,22.07
2019-02-03T02:01:18.818Z,22.05
2019-02-03T02:03:45.496Z,22.11
2019-02-03T02:06:12.222Z,22.08
2019-02-03T02:08:41.489Z,22.05
2019-02-03T02:11:08.151Z,22.02
2019-02-03T02:13:34.827Z,22.06
2019-02-03T02:16:01.488Z,22.06
2019-02-03T02:18:28.138Z,22.06
2019-02-03T02:20:54.846Z,22.06
2019-02-03T02:23:21.508Z,22.07
2019-02-03T02:25:48.170Z,22.05
2019-02-03T02:28:14.831Z,21.99
2019-02-03T02:30:41.491Z,21.96
2019-02-03T02:33:08.160Z,22.02
2019-02-03T02:35:34.820Z,22.04
2019-02-03T02:38:06.264Z,22.01
2019-02-03T02:40:28.143Z,22.04
2019-02-03T02:42:54.842Z,22.01
2019-02-03T02:45:21.500Z,21.99
2019-02-03T02:47:48.143Z,22.05
2019-02-03T02:50:14.815Z,22.05
2019-02-03T02:52:41.474Z,22.08
2019-02-03T02:55:08.131Z,22.04
2019-02-03T02:57:34.785Z,22.00
2019-02-03T03:00:01.447Z,22.00
2019-02-03T03:02:28.110Z,21.99
2019-02-03T03:04:54.811Z,22.04
2019-02-03T03:07:21.513Z,22.00
2019-02-03T03:09:48.313Z,22.00
2019-02-03T03:12:14.974Z,21.99
2019-02-03T03:14:41.638Z,22.01
2019-02-03T03:17:08.315Z,22.02
2019-02-03T03:19:34.982Z,21.98
2019-02-03T03:22:01.666Z,21.99
2019-02-03T03:24:28.342Z,22.00
2019-02-03T03:26:55.048Z,22.04
2019-02-03T03:29:21.738Z,21.99
2019-02-03T03:31:48.405Z,21.96
2019-02-03T03:34:15.093Z,22.01
2019-02-03T03:36:41.861Z,21.94
2019-02-03T03:39:08.500Z,21.96
2019-02-03T03:41:35.158Z,21.99
2019-02-03T03:44:01.828Z,21.97
2019-02-03T03:46:28.491Z,21.99
2019-02-03T03:48:55.141Z,21.96
2019-02-03T03:51:21.850Z,21.95
2019-02-03T03:53:48.550Z,21.97
2019-02-03T03:56:15.223Z,21.96
2019-02-03T03:58:41.890Z,21.91
2019-02-03T04:01:08.552Z,21.91
2019-02-03T04:03:35.248Z,21.99
2019-02-03T04:06:01.911Z,21.94
2019-02-03T04:08:28.745Z,21.97
2019-02-03T04:10:55.279Z,21.91
2019-02-03T04:13:21.972Z,21.96
2019-02-03T04:15:48.619Z,21.93
2019-02-03T04:18:15.281Z,21.97
2019-02-03T04:20:41.989Z,21.95
2019-02-03T04:23:08.645Z,21.88
2019-02-03T04:25:35.332Z,21.92
2019-02-03T04:28:02.143Z,21.94
2019-02-03T04:30:28.843Z,21.95
2019-02-03T04:32:55.663Z,21.90
2019-02-03T04:35:22.360Z,21.94
2019-02-03T04:37:49.009Z,21.93
2019-02-03T04:40:15.709Z,21.86
2019-02-03T04:42:42.433Z,21.90
2019-02-03T04:45:09.110Z,21.91
2019-02-03T04:47:35.757Z,21.90
2019-02-03T04:50:02.499Z,21.87
2019-02-03T04:52:29.148Z,21.90
2019-02-03T04:54:55.799Z,21.90
2019-02-03T04:57:23.402Z,21.88
2019-02-03T04:59:50.057Z,21.93
2019-02-03T05:02:16.714Z,21.92
2019-02-03T05:04:43.365Z,21.86
2019-02-03T05:07:10.019Z,21.96
2019-02-03T05:09:36.724Z,21.92
2019-02-03T05:12:03.385Z,21.93
2019-02-03T05:14:30.085Z,21.84
2019-02-03T05:16:56.745Z,21.92
2019-02-03T05:19:23.398Z,21.91
2019-02-03T05:21:50.101Z,21.82
2019-02-03T05:24:16.870Z,21.77
2019-02-03T05:26:43.649Z,21.69
2019-02-03T05:29:10.209Z,21.61
2019-02-03T05:31:36.972Z,21.67
2019-02-03T05:34:03.677Z,21.57
2019-02-03T05:36:30.327Z,21.63
2019-02-03T05:38:56.985Z,21.68
2019-02-03T05:41:23.649Z,21.67
2019-02-03T05:43:50.291Z,21.68
2019-02-03T05:46:16.947Z,21.70
2019-02-03T05:48:43.584Z,21.69
2019-02-03T05:51:10.226Z,21.72
2019-02-03T05:53:36.883Z,21.76
2019-02-03T05:56:03.541Z,21.75
2019-02-03T05:58:30.221Z,21.73
2019-02-03T06:00:57.004Z,21.76
2019-02-03T06:03:23.651Z,21.75
2019-02-03T06:05:50.301Z,21.76
2019-02-03T06:08:16.950Z,21.75
2019-02-03T06:10:43.637Z,21.76
2019-02-03T06:13:10.261Z,21.74
2019-02-03T06:15:36.908Z,21.74
2019-02-03T06:18:03.593Z,21.75
2019-02-03T06:20:30.269Z,21.76
2019-02-03T06:22:56.909Z,21.73
2019-02-03T06:25:23.572Z,21.71
2019-02-03T06:27:50.268Z,21.70
2019-02-03T06:30:16.919Z,21.71
2019-02-03T06:32:43.558Z,21.71
2019-02-03T06:35:10.215Z,21.73
2019-02-03T06:37:36.870Z,21.75
2019-02-03T06:40:03.554Z,21.74
2019-02-03T06:42:30.200Z,21.73
2019-02-03T06:44:56.882Z,21.70
2019-02-03T06:47:23.526Z,21.77
2019-02-03T06:49:50.165Z,21.79
2019-02-03T06:52:16.809Z,21.77
2019-02-03T06:54:43.493Z,21.71
2019-02-03T06:57:10.179Z,21.75
2019-02-03T06:59:36.834Z,21.75
2019-02-03T07:02:03.480Z,21.78
2019-02-03T07:04:30.167Z,21.79
2019-02-03T07:06:56.805Z,21.77
2019-02-03T07:09:23.478Z,21.78
2019-02-03T07:11:50.130Z,21.79
2019-02-03T07:14:16.790Z,21.82
2019-02-03T07:16:43.472Z,21.79
2019-02-03T07:19:10.125Z,21.80
2019-02-03T07:21:36.803Z,21.80
2019-02-03T07:24:03.484Z,21.82
2019-02-03T07:26:30.130Z,21.85
2019-02-03T07:28:56.766Z,21.85
2019-02-03T07:31:23.411Z,21.83
2019-02-03T07:33:50.053Z,21.84
2019-02-03T07:36:16.702Z,21.86
2019-02-03T07:38:43.348Z,21.85
2019-02-03T07:41:09.994Z,21.85
2019-02-03T07:43:36.640Z,21.86
2019-02-03T07:46:03.283Z,21.88
2019-02-03T07:48:31.265Z,21.90
2019-02-03T07:50:56.642Z,21.96
2019-02-03T07:53:23.313Z,21.95
2019-02-03T07:55:49.952Z,21.95
2019-02-03T07:58:16.601Z,21.97
2019-02-03T08:00:43.240Z,21.98
2019-02-03T08:03:10.183Z,21.95
2019-02-03T08:05:36.835Z,21.97
2019-02-03T08:08:03.577Z,22.01
2019-02-03T08:10:30.231Z,22.04
2019-02-03T08:12:56.881Z,22.03
2019-02-03T08:15:23.535Z,22.01
2019-02-03T08:17:50.217Z,22.04
2019-02-03T08:20:16.868Z,22.09
2019-02-03T08:22:43.505Z,22.06
2019-02-03T08:25:10.199Z,22.03
2019-02-03T08:27:36.832Z,22.04
2019-02-03T08:30:03.515Z,22.10
2019-02-03T08:32:30.161Z,22.12
2019-02-03T08:34:56.792Z,22.12
2019-02-03T08:37:23.438Z,22.11
2019-02-03T08:39:50.084Z,22.14
2019-02-03T08:42:16.737Z,22.15
2019-02-03T08:44:43.377Z,22.17
2019-02-03T08:47:10.018Z,22.18
2019-02-03T08:49:36.692Z,22.16
2019-02-03T08:52:03.359Z,22.22
2019-02-03T08:54:29.983Z,22.21
2019-02-03T08:56:56.745Z,22.21
2019-02-03T08:59:23.425Z,22.23
2019-02-03T09:01:50.111Z,22.24
2019-02-03T09:04:16.749Z,22.27
2019-02-03T09:06:43.399Z,22.27
2019-02-03T09:09:10.034Z,22.30
2019-02-03T09:11:36.716Z,22.29
2019-02-03T09:14:03.367Z,22.31
2019-02-03T09:16:30.011Z,22.31
2019-02-03T09:18:56.654Z,22.32
2019-02-03T09:21:23.349Z,22.36
2019-02-03T09:23:49.989Z,22.38
2019-02-03T09:26:16.644Z,22.36
2019-02-03T09:28:43.279Z,22.40
2019-02-03T09:31:10.001Z,22.40
2019-02-03T09:33:36.676Z,22.41
2019-02-03T09:36:03.323Z,22.45
2019-02-03T09:38:29.938Z,22.45
2019-02-03T09:41:00.080Z,22.46
2019-02-03T09:43:23.289Z,22.47
2019-02-03T09:45:49.974Z,22.50
2019-02-03T09:48:16.603Z,22.49
2019-02-03T09:50:43.389Z,22.51
2019-02-03T09:53:09.945Z,22.53
2019-02-03T09:55:36.580Z,22.54
2019-02-03T09:58:03.286Z,22.55
2019-02-03T10:00:29.925Z,22.55
2019-02-03T10:02:56.570Z,22.56
2019-02-03T10:05:23.264Z,22.59
2019-02-03T10:07:49.896Z,22.55
2019-02-03T10:10:16.532Z,22.58
2019-02-03T10:12:43.184Z,22.62
2019-02-03T10:15:09.837Z,22.60
2019-02-03T10:17:36.520Z,22.61
2019-02-03T10:20:03.213Z,22.63
2019-02-03T10:22:29.865Z,22.62
2019-02-03T10:24:56.509Z,22.65
2019-02-03T10:27:23.143Z,22.71
2019-02-03T10:29:49.841Z,22.67
2019-02-03T10:32:16.620Z,22.71
2019-02-03T10:34:43.263Z,22.69
2019-02-03T10:37:09.902Z,22.73
2019-02-03T10:39:36.543Z,22.72
2019-02-03T10:42:03.225Z,22.77
2019-02-03T10:44:29.869Z,22.70
2019-02-03T10:46:56.581Z,22.80
2019-02-03T10:49:23.156Z,22.80
2019-02-03T10:51:49.837Z,22.82
2019-02-03T10:54:16.514Z,22.85
2019-02-03T10:56:43.306Z,22.86
2019-02-03T10:59:09.957Z,22.89
2019-02-03T11:01:36.596Z,22.93
2019-02-03T11:04:03.280Z,22.95
2019-02-03T11:06:29.922Z,22.95
2019-02-03T11:08:56.556Z,22.96
2019-02-03T11:11:23.212Z,22.99
2019-02-03T11:13:49.897Z,23.01
2019-02-03T11:16:16.545Z,23.02
2019-02-03T11:18:43.188Z,23.02
2019-02-03T11:21:09.874Z,23.02
2019-02-03T11:23:36.518Z,23.07
2019-02-03T11:26:03.174Z,23.09
2019-02-03T11:28:29.825Z,23.13
2019-02-03T11:30:56.479Z,23.18
2019-02-03T11:33:23.174Z,23.20
2019-02-03T11:35:49.853Z,23.23
2019-02-03T11:38:16.538Z,23.23
2019-02-03T11:40:43.257Z,23.26
2019-02-03T11:43:09.994Z,23.28
2019-02-03T11:45:36.673Z,23.31
2019-02-03T11:48:03.349Z,23.33
2019-02-03T11:50:33.179Z,23.36
2019-02-03T11:53:00.917Z,23.38
2019-02-03T11:55:27.983Z,23.39
2019-02-03T11:57:53.116Z,23.41
2019-02-03T12:00:19.770Z,23.45
2019-02-03T12:02:48.284Z,23.44
2019-02-03T12:05:14.921Z,23.46
2019-02-03T12:07:41.569Z,23.45
2019-02-03T12:10:09.491Z,23.49
2019-02-03T12:12:36.004Z,23.50
2019-02-03T12:15:02.697Z,23.52
2019-02-03T12:17:28.190Z,23.52
2019-02-03T12:19:57.761Z,23.53
2019-02-03T12:22:24.387Z,23.58
2019-02-03T12:24:52.786Z,23.59
2019-02-03T12:27:19.472Z,23.60
2019-02-03T12:29:46.114Z,23.60
2019-02-03T12:32:12.765Z,23.61
2019-02-03T12:34:42.223Z,23.63
2019-02-03T12:37:08.871Z,23.69
2019-02-03T12:39:40.794Z,23.70
2019-02-03T12:42:13.114Z,23.71
2019-02-03T12:44:35.773Z,23.73
2019-02-03T12:47:02.422Z,23.73
2019-02-03T12:49:37.510Z,23.77
2019-02-03T12:52:04.156Z,23.78
2019-02-03T12:54:33.741Z,23.79
2019-02-03T12:57:01.788Z,23.80
2019-02-03T12:59:28.387Z,23.81
2019-02-03T13:01:53.697Z,23.84
2019-02-03T13:04:21.739Z,23.86
2019-02-03T13:06:49.429Z,23.86
2019-02-03T13:09:18.179Z,23.87
2019-02-03T13:11:42.727Z,23.88
2019-02-03T13:14:09.371Z,23.89
2019-02-03T13:16:36.016Z,23.93
2019-02-03T13:19:02.665Z,23.95
2019-02-03T13:21:29.313Z,23.98
2019-02-03T13:23:55.962Z,24.01
2019-02-03T13:26:22.764Z,24.05
2019-02-03T13:28:52.613Z,24.25
2019-02-03T13:31:20.258Z,23.91
2019-02-03T13:33:48.129Z,23.89
2019-02-03T13:36:14.913Z,23.90
2019-02-03T13:38:40.227Z,23.95
2019-02-03T13:41:06.872Z,23.87
2019-02-03T13:43:33.521Z,23.87
2019-02-03T13:46:01.585Z,23.90
2019-02-03T13:48:29.126Z,23.89
2019-02-03T13:50:55.768Z,23.89
2019-02-03T13:53:22.416Z,23.92
2019-02-03T13:55:49.069Z,23.91
2019-02-03T13:58:15.720Z,23.92
2019-02-03T14:00:47.193Z,23.93
2019-02-03T14:03:09.021Z,23.93
2019-02-03T14:05:38.527Z,23.90
2019-02-03T14:08:07.385Z,23.91
2019-02-03T14:10:36.808Z,23.90
2019-02-03T14:13:05.623Z,23.89
2019-02-03T14:15:30.130Z,23.88
2019-02-03T14:17:56.772Z,23.88
2019-02-03T14:20:25.383Z,23.86
2019-02-03T14:22:52.443Z,23.86
2019-02-03T14:25:20.335Z,23.84
2019-02-03T14:27:47.101Z,23.81
2019-02-03T14:30:12.366Z,23.82
2019-02-03T14:32:41.160Z,23.83
2019-02-03T14:35:07.076Z,23.80
2019-02-03T14:37:32.325Z,23.81
2019-02-03T14:39:58.969Z,23.79
2019-02-03T14:42:30.227Z,23.77
2019-02-03T14:44:56.879Z,23.79
2019-02-03T14:47:24.813Z,23.76
2019-02-03T14:49:52.310Z,23.73
2019-02-03T14:52:16.792Z,23.73
2019-02-03T14:54:46.403Z,23.73
2019-02-03T14:57:13.044Z,23.74
2019-02-03T14:59:39.697Z,23.71
2019-02-03T15:02:06.345Z,23.71
2019-02-03T15:04:32.997Z,23.71
2019-02-03T15:07:02.553Z,23.69
2019-02-03T15:09:29.215Z,23.66
2019-02-03T15:11:58.333Z,23.70
2019-02-03T15:14:24.975Z,23.70
2019-02-03T15:16:53.794Z,23.70
2019-02-03T15:19:21.838Z,23.66
2019-02-03T15:22:02.805Z,23.67
2019-02-03T15:24:16.342Z,23.67
2019-02-03T15:26:41.392Z,23.63
2019-02-03T15:29:07.043Z,23.63
2019-02-03T15:31:33.690Z,23.62
2019-02-03T15:34:03.616Z,23.62
2019-02-03T15:36:28.930Z,23.60
2019-02-03T15:38:57.160Z,23.61
2019-02-03T15:41:24.977Z,23.60
2019-02-03T15:43:51.625Z,23.59
2019-02-03T15:46:18.271Z,23.58
2019-02-03T15:48:49.629Z,23.56
2019-02-03T15:51:18.117Z,23.54
2019-02-03T15:53:42.945Z,23.62
2019-02-03T15:56:09.592Z,23.60
2019-02-03T15:58:37.622Z,23.53
2019-02-03T16:01:02.909Z,23.56
2019-02-03T16:03:29.555Z,23.54
2019-02-03T16:05:59.888Z,23.53
2019-02-03T16:08:32.068Z,23.54
2019-02-03T16:10:58.719Z,23.49
2019-02-03T16:13:36.506Z,23.51
2019-02-03T16:15:52.128Z,23.48
2019-02-03T16:18:22.274Z,23.47
2019-02-03T16:20:50.017Z,23.50
2019-02-03T16:23:17.813Z,23.48
2019-02-03T16:25:43.333Z,23.46
2019-02-03T16:28:09.979Z,23.48
2019-02-03T16:30:36.666Z,23.47
2019-02-03T16:33:03.304Z,23.47
2019-02-03T16:35:33.347Z,23.44
2019-02-03T16:37:59.992Z,23.45
2019-02-03T16:40:26.650Z,23.44
2019-02-03T16:42:53.304Z,23.43
2019-02-03T16:45:19.950Z,23.45
2019-02-03T16:47:46.620Z,23.46
2019-02-03T16:50:14.688Z,23.45
2019-02-03T16:52:39.897Z,23.44
2019-02-03T16:55:06.545Z,23.43
2019-02-03T16:57:33.230Z,23.42
2019-02-03T17:00:03.295Z,23.43
2019-02-03T17:02:28.605Z,23.41
2019-02-03T17:04:55.258Z,23.38
2019-02-03T17:07:21.915Z,23.39
2019-02-03T17:09:48.619Z,23.38
2019-02-03T17:12:15.244Z,23.38
2019-02-03T17:14:41.896Z,23.36
2019-02-03T17:17:09.901Z,23.36
2019-02-03T17:19:36.459Z,23.38
2019-02-03T17:22:03.979Z,23.37
2019-02-03T17:24:28.466Z,23.34
2019-02-03T17:26:55.118Z,23.34
2019-02-03T17:29:21.755Z,23.36
2019-02-03T17:31:48.407Z,23.40
2019-02-03T17:34:16.467Z,23.36
2019-02-03T17:36:49.926Z,23.36
2019-02-03T17:39:18.550Z,23.37
2019-02-03T17:41:43.253Z,23.37
2019-02-03T17:44:13.329Z,23.33
2019-02-03T17:46:36.590Z,23.32
2019-02-03T17:49:04.727Z,23.31
2019-02-03T17:51:29.887Z,23.34
2019-02-03T17:54:00.398Z,23.34
2019-02-03T17:56:25.955Z,23.32
2019-02-03T17:58:55.642Z,23.34
2019-02-03T18:01:22.388Z,23.27
2019-02-03T18:03:51.852Z,23.30
2019-02-03T18:06:18.493Z,23.27
2019-02-03T18:08:45.138Z,23.30
2019-02-03T18:11:11.825Z,23.27
2019-02-03T18:13:41.260Z,23.27
2019-02-03T18:16:07.894Z,23.22
2019-02-03T18:18:35.950Z,23.26
2019-02-03T18:21:08.640Z,23.22
2019-02-03T18:23:30.592Z,23.27
2019-02-03T18:25:59.947Z,23.23
2019-02-03T18:28:28.890Z,23.24
2019-02-03T18:30:56.934Z,23.26
2019-02-03T18:33:23.864Z,23.21
2019-02-03T18:35:48.821Z,23.19
2019-02-03T18:38:17.807Z,23.22
2019-02-03T18:40:42.696Z,23.22
2019-02-03T18:43:09.337Z,23.17
2019-02-03T18:45:35.989Z,23.18
2019-02-03T18:48:02.617Z,23.21
2019-02-03T18:50:30.501Z,23.17
2019-02-03T18:52:55.932Z,23.19
2019-02-03T18:55:23.779Z,23.17
2019-02-03T18:57:52.294Z,23.18
2019-02-03T19:00:20.983Z,23.17
2019-02-03T19:02:47.627Z,23.15
2019-02-03T19:05:14.281Z,23.13
2019-02-03T19:07:40.922Z,23.07
2019-02-03T19:10:10.034Z,23.15
2019-02-03T19:12:38.131Z,23.17
2019-02-03T19:15:05.825Z,23.13
2019-02-03T19:17:32.467Z,23.13
2019-02-03T19:19:59.108Z,23.13
2019-02-03T19:22:28.047Z,23.10
2019-02-03T19:24:56.716Z,23.11
2019-02-03T19:27:24.538Z,23.09
2019-02-03T19:29:51.190Z,23.11
2019-02-03T19:32:17.838Z,23.10
2019-02-03T19:34:44.488Z,23.11
2019-02-03T19:37:11.169Z,23.05
2019-02-03T19:39:40.189Z,23.12
2019-02-03T19:42:06.840Z,23.13
2019-02-03T19:44:34.950Z,23.10
2019-02-03T19:47:00.137Z,23.07
2019-02-03T19:49:28.160Z,23.09
2019-02-03T19:51:53.461Z,23.10
2019-02-03T19:54:20.102Z,23.08
2019-02-03T19:56:48.835Z,23.05
2019-02-03T19:59:15.483Z,23.05
2019-02-03T20:01:42.128Z,23.07
2019-02-03T20:04:08.776Z,23.03
2019-02-03T20:06:35.454Z,22.97
2019-02-03T20:09:03.501Z,23.05
2019-02-03T20:11:28.745Z,23.05
2019-02-03T20:13:56.459Z,23.02
2019-02-03T20:16:22.054Z,22.99
2019-02-03T20:18:48.717Z,23.02
2019-02-03T20:21:15.401Z,22.99
2019-02-03T20:23:43.276Z,23.00
2019-02-03T20:26:10.770Z,23.00
2019-02-03T20:28:37.414Z,23.01
2019-02-03T20:31:06.183Z,22.98
2019-02-03T20:33:33.670Z,22.99
2019-02-03T20:36:00.330Z,22.93
2019-02-03T20:38:28.256Z,22.94
2019-02-03T20:40:53.622Z,22.94
2019-02-03T20:43:23.041Z,22.91
2019-02-03T20:45:50.110Z,22.94
2019-02-03T20:48:16.321Z,22.96
2019-02-03T20:50:42.970Z,22.97
2019-02-03T20:53:09.611Z,22.95
2019-02-03T20:55:39.573Z,22.95
2019-02-03T20:58:07.570Z,22.93
2019-02-03T21:00:32.861Z,22.92
2019-02-03T21:03:01.877Z,22.95
2019-02-03T21:05:29.743Z,22.93
2019-02-03T21:07:56.564Z,22.92
2019-02-03T21:10:29.153Z,22.90
2019-02-03T21:12:54.344Z,22.90
2019-02-03T21:15:32.457Z,22.95
2019-02-03T21:17:47.671Z,22.86
2019-02-03T21:20:18.773Z,22.85
2019-02-03T21:22:47.163Z,22.93
2019-02-03T21:25:13.797Z,22.87
2019-02-03T21:27:42.527Z,22.85
2019-02-03T21:30:08.573Z,22.86
2019-02-03T21:32:36.632Z,22.76
2019-02-03T21:35:06.365Z,22.71
2019-02-03T21:37:33.020Z,22.69
2019-02-03T21:40:04.757Z,22.70
2019-02-03T21:42:32.249Z,22.70
2019-02-03T21:45:00.275Z,22.71
2019-02-03T21:47:34.665Z,22.73
2019-02-03T21:50:07.109Z,22.69
2019-02-03T21:52:33.732Z,22.72
2019-02-03T21:55:01.823Z,22.73
2019-02-03T21:57:27.092Z,22.71
2019-02-03T21:59:53.779Z,22.72
2019-02-03T22:02:20.431Z,22.70
2019-02-03T22:04:48.457Z,22.70
2019-02-03T22:07:16.753Z,22.72
2019-02-03T22:09:43.705Z,22.72
2019-02-03T22:12:10.399Z,22.68
2019-02-03T22:14:37.036Z,22.70
2019-02-03T22:17:03.692Z,22.68
2019-02-03T22:19:31.411Z,22.64
2019-02-03T22:21:56.994Z,22.69
2019-02-03T22:24:28.746Z,22.65
2019-02-03T22:26:55.388Z,22.69
2019-02-03T22:29:22.027Z,22.71
2019-02-03T22:31:48.678Z,22.66
2019-02-03T22:34:15.471Z,22.68
2019-02-03T22:36:44.256Z,22.68
2019-02-03T22:39:10.498Z,22.63
2019-02-03T22:41:35.437Z,22.66
2019-02-03T22:44:04.007Z,22.69
2019-02-03T22:46:28.771Z,22.66
2019-02-03T22:48:55.418Z,22.66
2019-02-03T22:51:22.051Z,22.63
2019-02-03T22:53:50.907Z,22.62
2019-02-03T22:56:17.550Z,22.64
2019-02-03T22:58:44.202Z,22.67
2019-02-03T23:01:17.881Z,22.65
2019-02-03T23:03:44.522Z,22.67
2019-02-03T23:06:14.115Z,22.62
2019-02-03T23:08:50.257Z,22.66
2019-02-03T23:11:12.153Z,22.58
2019-02-03T23:13:38.788Z,22.64
2019-02-03T23:16:17.981Z,22.71
2019-02-03T23:18:35.050Z,22.68
2019-02-03T23:21:01.664Z,22.61
2019-02-03T23:23:28.476Z,22.62
2019-02-03T23:25:55.644Z,22.65
2019-02-03T23:28:22.312Z,22.63
2019-02-03T23:30:49.011Z,22.63
2019-02-03T23:33:15.713Z,22.55
2019-02-03T23:35:42.373Z,22.60
2019-02-03T23:38:09.091Z,22.61
2019-02-03T23:40:37.883Z,22.61
2019-02-03T23:43:02.421Z,22.64
2019-02-03T23:45:29.132Z,22.63
2019-02-03T23:47:55.792Z,22.62
2019-02-03T23:50:22.519Z,22.59
2019-02-03T23:52:49.189Z,22.56
2019-02-03T23:55:15.887Z,22.60
2019-02-03T23:57:42.548Z,22.54
